Time;durP1;ratioP1;P1;durP2;ratioP2;P2;SDS_P1;SDS_P2;PMS_P1;PMS_P2;Temp;Humidity;BMP_temperature;BMP_pressure;BME280_temperature;BME280_humidity;BME280_pressure;Samples;Min_cycle;Max_cycle;Signal;HPM_P1;HPM_P2
2022/12/19 00:01:25;;;;;;;;;;;;;;;10.45;43.83;101976.16;4941493;28;127409;-66
2022/12/19 00:03:55;;;;;;;;;;;;;;;10.46;43.57;101969.75;4979057;28;99838;-67
2022/12/19 00:06:21;;;;;;;;;;;;;;;10.46;43.64;101962.47;4944924;28;109583;-66
2022/12/19 00:08:48;;;;;;;;;;;;;;;10.47;44.09;101961.41;4957274;28;99360;-66
2022/12/19 00:11:14;;;;;;;;;;;;;;;10.47;43.45;101950.63;4960130;28;98672;-66
2022/12/19 00:13:40;;;;;;;;;;;;;;;10.48;43.62;101941.47;4945148;28;99180;-70
2022/12/19 00:16:17;;;;;;;;;;;;;;;10.49;43.87;101929.66;4961601;28;114325;-66
2022/12/19 00:18:43;;;;;;;;;;;;;;;10.49;43.67;101918.03;4960295;28;100175;-67
2022/12/19 00:21:11;;;;;;;;;;;;;;;10.49;43.43;101926.13;4944778;28;103388;-66
2022/12/19 00:23:37;;;;;;;;;;;;;;;10.49;43.85;101918.88;4942094;28;100756;-70
2022/12/19 00:26:30;;;;;;;;;;;;;;;10.51;43.49;101932.13;4957073;28;117549;-66
2022/12/19 00:28:57;;;;;;;;;;;;;;;10.51;44.01;101929.41;4952992;28;98891;-70
2022/12/19 00:31:24;;;;;;;;;;;;;;;10.51;43.84;101934.81;4960038;28;98490;-66
2022/12/19 00:33:50;;;;;;;;;;;;;;;10.52;43.93;101934.56;4956476;28;98166;-66
2022/12/19 00:36:18;;;;;;;;;;;;;;;10.52;43.50;101933.75;4948182;28;115523;-70
2022/12/19 00:38:45;;;;;;;;;;;;;;;10.52;43.55;101931.06;4955216;28;99654;-70
2022/12/19 00:41:11;;;;;;;;;;;;;;;10.53;43.71;101924.59;4941436;28;114365;-70
2022/12/19 00:43:37;;;;;;;;;;;;;;;10.52;43.98;101929.16;4974885;28;99935;-66
2022/12/19 00:46:04;;;;;;;;;;;;;;;10.52;43.46;101923.78;4974500;28;115245;-66
2022/12/19 00:48:31;;;;;;;;;;;;;;;10.52;43.51;101925.66;4961205;28;104125;-66
2022/12/19 00:51:01;;;;;;;;;;;;;;;10.52;43.88;101929.16;4945373;28;110339;-70
2022/12/19 00:53:28;;;;;;;;;;;;;;;10.52;43.93;101953.44;4954199;28;98997;-66
2022/12/19 00:55:54;;;;;;;;;;;;;;;10.52;43.85;101974.19;4945084;28;106587;-66
2022/12/19 00:58:19;;;;;;;;;;;;;;;10.53;43.64;101965.03;4942130;28;98323;-67
2022/12/19 01:00:45;;;;;;;;;;;;;;;10.51;43.75;101949.09;4956418;28;128032;-66
2022/12/19 01:03:11;;;;;;;;;;;;;;;10.51;43.66;101956.38;4942461;28;99124;-66
2022/12/19 01:05:37;;;;;;;;;;;;;;;10.50;43.39;101947.47;4943467;28;119881;-69
2022/12/19 01:08:03;;;;;;;;;;;;;;;10.49;43.74;101940.44;4959608;28;128372;-70
2022/12/19 01:10:29;;;;;;;;;;;;;;;10.49;43.51;101932.34;4969641;28;102804;-70
2022/12/19 01:12:56;;;;;;;;;;;;;;;10.47;44.01;101926.34;4942585;28;127568;-70
2022/12/19 01:15:22;;;;;;;;;;;;;;;10.48;43.72;101929.88;4973586;28;116191;-70
2022/12/19 01:17:48;;;;;;;;;;;;;;;10.46;43.84;101927.41;4953856;28;128378;-70
2022/12/19 01:20:16;;;;;;;;;;;;;;;10.46;43.64;101930.13;4968146;28;100077;-66
2022/12/19 01:22:42;;;;;;;;;;;;;;;10.45;43.98;101927.63;4943566;28;98488;-66
2022/12/19 01:25:08;;;;;;;;;;;;;;;10.45;43.83;101911.47;4957945;28;114592;-69
2022/12/19 01:27:34;;;;;;;;;;;;;;;10.46;43.72;101902.34;4958582;28;120995;-70
2022/12/19 01:30:00;;;;;;;;;;;;;;;10.45;43.74;101903.38;4959228;28;127764;-66
2022/12/19 01:32:26;;;;;;;;;;;;;;;10.44;43.52;101904.44;4957186;28;127095;-66
2022/12/19 01:34:52;;;;;;;;;;;;;;;10.43;43.80;101909.00;4973469;28;98227;-69
2022/12/19 01:37:18;;;;;;;;;;;;;;;10.43;43.84;101900.09;4953407;28;128252;-66
2022/12/19 01:39:44;;;;;;;;;;;;;;;10.42;43.49;101896.59;4957332;28;113113;-70
2022/12/19 01:42:17;;;;;;;;;;;;;;;10.42;44.04;101895.78;4941907;28;125569;-66
2022/12/19 01:45:06;;;;;;;;;;;;;;;10.41;43.83;101891.41;4941703;28;97944;-66
2022/12/19 01:47:33;;;;;;;;;;;;;;;10.41;43.70;101891.41;4973847;28;98722;-66
2022/12/19 01:49:59;;;;;;;;;;;;;;;10.38;43.58;101876.53;4945086;28;125556;-66
2022/12/19 01:52:25;;;;;;;;;;;;;;;10.36;43.58;101869.72;4960141;28;98896;-70
2022/12/19 01:54:51;;;;;;;;;;;;;;;10.35;43.97;101879.69;4959372;28;121333;-66
2022/12/19 01:57:17;;;;;;;;;;;;;;;10.32;43.82;101867.47;4953958;28;129012;-69
2022/12/19 01:59:44;;;;;;;;;;;;;;;10.30;43.73;101866.09;4940118;28;127376;-66
2022/12/19 02:02:28;;;;;;;;;;;;;;;10.29;43.67;101850.94;4944916;28;121055;-66
2022/12/19 02:04:54;;;;;;;;;;;;;;;10.27;43.67;101861.16;4943688;28;98728;-66
2022/12/19 02:07:20;;;;;;;;;;;;;;;10.26;43.80;101854.13;4964679;28;127329;-66
2022/12/19 02:09:48;;;;;;;;;;;;;;;10.25;43.95;101858.69;4943479;28;123680;-69
2022/12/19 02:12:14;;;;;;;;;;;;;;;10.25;43.96;101864.06;4939163;28;98046;-70
2022/12/19 02:14:40;;;;;;;;;;;;;;;10.24;43.37;101856.19;4940050;28;98534;-66
2022/12/19 02:17:20;;;;;;;;;;;;;;;10.23;43.51;101854.56;4944455;28;128382;-70
2022/12/19 02:20:03;;;;;;;;;;;;;;;10.21;44.10;101844.00;4974695;28;107466;-66
2022/12/19 02:22:59;;;;;;;;;;;;;;;10.20;43.43;101845.06;4939369;28;128871;-70
2022/12/19 02:25:37;;;;;;;;;;;;;;;10.20;43.92;101825.38;4959688;28;98436;-70
2022/12/19 02:28:21;;;;;;;;;;;;;;;10.19;43.52;101823.75;4977373;28;98387;-66
2022/12/19 02:30:56;;;;;;;;;;;;;;;10.19;43.56;101812.97;4952588;28;99878;-66
2022/12/19 02:33:35;;;;;;;;;;;;;;;10.17;43.82;101837.44;4936513;28;118770;-69
2022/12/19 02:36:10;;;;;;;;;;;;;;;10.16;43.49;101822.31;4959762;28;120455;-66
2022/12/19 02:38:59;;;;;;;;;;;;;;;10.16;43.47;101822.31;4956433;28;98178;-66
2022/12/19 02:41:42;;;;;;;;;;;;;;;10.16;43.28;101835.78;4952146;28;98308;-70
2022/12/19 02:44:11;;;;;;;;;;;;;;;10.15;43.27;101831.47;4958176;28;97988;-66
2022/12/19 02:46:36;;;;;;;;;;;;;;;10.15;43.42;101836.84;4971629;28;120295;-70
2022/12/19 02:49:02;;;;;;;;;;;;;;;10.15;43.32;101826.06;4940580;28;127769;-70
2022/12/19 02:51:30;;;;;;;;;;;;;;;10.15;43.83;101825.25;4952693;28;119726;-66
2022/12/19 02:53:56;;;;;;;;;;;;;;;10.14;43.87;101824.44;4976572;28;127071;-70
2022/12/19 02:56:50;;;;;;;;;;;;;;;10.15;43.24;101834.16;4939590;28;124481;-70
2022/12/19 02:59:38;;;;;;;;;;;;;;;10.16;43.50;101843.06;4952123;28;126601;-66
2022/12/19 03:02:32;;;;;;;;;;;;;;;10.14;43.72;101851.38;4970979;28;106095;-66
2022/12/19 03:05:23;;;;;;;;;;;;;;;10.15;43.58;101846.81;4970089;28;99712;-71
2022/12/19 03:08:00;;;;;;;;;;;;;;;10.14;43.43;101845.16;4946714;28;112629;-70
2022/12/19 03:10:41;;;;;;;;;;;;;;;10.13;43.52;101847.03;4937870;28;118591;-70
2022/12/19 03:13:10;;;;;;;;;;;;;;;10.13;43.69;101846.22;4943791;28;125722;-69
2022/12/19 03:15:36;;;;;;;;;;;;;;;10.15;43.67;101850.31;4957660;28;128137;-66
2022/12/19 03:18:02;;;;;;;;;;;;;;;10.14;43.90;101850.53;4940160;28;123343;-70
2022/12/19 03:20:49;;;;;;;;;;;;;;;10.16;43.55;101851.13;4942766;28;129190;-70
2022/12/19 03:23:15;;;;;;;;;;;;;;;10.17;43.28;101844.69;4952716;28;98112;-70
2022/12/19 03:25:42;;;;;;;;;;;;;;;10.17;43.76;101844.69;4939246;28;99453;-66
2022/12/19 03:28:15;;;;;;;;;;;;;;;10.17;43.66;101855.47;4960467;28;97971;-66
2022/12/19 03:30:41;;;;;;;;;;;;;;;10.18;43.59;101863.34;4944565;28;121642;-66
2022/12/19 03:33:08;;;;;;;;;;;;;;;10.18;43.68;101860.66;4926877;28;104127;-66
2022/12/19 03:35:34;;;;;;;;;;;;;;;10.18;43.50;101868.72;4943940;28;129140;-70
2022/12/19 03:38:01;;;;;;;;;;;;;;;10.18;43.52;101863.34;4963081;28;98206;-66
2022/12/19 03:40:27;;;;;;;;;;;;;;;10.19;43.42;101864.97;4942658;28;128105;-70
2022/12/19 03:43:10;;;;;;;;;;;;;;;10.21;43.73;101867.44;4960275;28;128327;-70
2022/12/19 03:45:44;;;;;;;;;;;;;;;10.20;43.50;101869.31;4946049;28;98261;-66
2022/12/19 03:48:16;;;;;;;;;;;;;;;10.21;43.63;101868.25;4955830;28;98057;-66
2022/12/19 03:50:55;;;;;;;;;;;;;;;10.22;43.97;101879.88;4958797;28;119937;-70
2022/12/19 03:53:27;;;;;;;;;;;;;;;10.22;43.59;101866.41;4957545;28;124226;-66
2022/12/19 03:55:58;;;;;;;;;;;;;;;10.23;43.75;101857.25;4961571;28;100198;-66
2022/12/19 03:58:27;;;;;;;;;;;;;;;10.22;43.70;101859.13;4943480;28;119902;-67
2022/12/19 04:00:53;;;;;;;;;;;;;;;10.23;43.64;101844.59;4939641;28;109666;-66
2022/12/19 04:03:19;;;;;;;;;;;;;;;10.24;43.72;101843.53;4943444;28;128560;-70
2022/12/19 04:05:45;;;;;;;;;;;;;;;10.25;43.86;101849.78;4956597;28;98294;-69
2022/12/19 04:08:11;;;;;;;;;;;;;;;10.25;43.65;101850.59;4938549;28;98133;-70
2022/12/19 04:10:46;;;;;;;;;;;;;;;10.26;43.33;101844.19;4959575;28;128080;-70
2022/12/19 04:13:17;;;;;;;;;;;;;;;10.27;43.57;101842.28;4945204;28;99743;-70
2022/12/19 04:16:04;;;;;;;;;;;;;;;10.28;43.92;101835.84;4958438;28;98111;-69
2022/12/19 04:18:30;;;;;;;;;;;;;;;10.29;43.81;101829.38;4972211;28;98179;-70
2022/12/19 04:21:10;;;;;;;;;;;;;;;10.29;43.35;101818.63;4942945;28;128168;-66
2022/12/19 04:23:48;;;;;;;;;;;;;;;10.30;43.77;101822.97;4940055;28;98439;-66
2022/12/19 04:26:14;;;;;;;;;;;;;;;10.31;43.51;101821.91;4956780;28;117570;-70
2022/12/19 04:28:46;;;;;;;;;;;;;;;10.30;43.38;101818.41;4942423;28;120874;-70
2022/12/19 04:31:15;;;;;;;;;;;;;;;10.30;43.43;101817.59;4954304;28;124180;-69
2022/12/19 04:33:41;;;;;;;;;;;;;;;10.29;43.43;101815.91;4940537;28;121734;-66
2022/12/19 04:36:07;;;;;;;;;;;;;;;10.28;43.39;101804.31;4950845;28;126252;-66
2022/12/19 04:38:33;;;;;;;;;;;;;;;10.28;43.79;101804.31;4952709;28;120232;-66
2022/12/19 04:40:59;;;;;;;;;;;;;;;10.26;43.42;101798.34;4955173;28;99555;-66
2022/12/19 04:43:25;;;;;;;;;;;;;;;10.25;43.49;101799.38;4958973;28;127205;-66
2022/12/19 04:45:51;;;;;;;;;;;;;;;10.24;43.53;101799.59;4942511;28;128537;-66
2022/12/19 04:48:17;;;;;;;;;;;;;;;10.24;43.32;101800.41;4898757;28;122512;-66
2022/12/19 04:50:42;;;;;;;;;;;;;;;10.24;43.61;101805.00;4941857;28;128832;-66
2022/12/19 04:53:08;;;;;;;;;;;;;;;10.24;43.26;101807.69;4970299;28;128114;-70
2022/12/19 04:55:35;;;;;;;;;;;;;;;10.25;43.36;101798.56;4945486;28;98318;-66
2022/12/19 04:58:05;;;;;;;;;;;;;;;10.24;43.79;101811.19;4960009;28;98262;-69
2022/12/19 05:00:30;;;;;;;;;;;;;;;10.23;43.30;101806.88;4957198;28;100314;-70
2022/12/19 05:02:56;;;;;;;;;;;;;;;10.23;43.77;101811.44;4940579;28;119644;-66
2022/12/19 05:05:22;;;;;;;;;;;;;;;10.23;43.82;101811.44;4955880;28;127840;-69
2022/12/19 05:07:48;;;;;;;;;;;;;;;10.25;43.57;101795.88;4964031;28;120658;-69
2022/12/19 05:10:14;;;;;;;;;;;;;;;10.31;43.32;101795.78;4940816;28;98007;-66
2022/12/19 05:12:40;;;;;;;;;;;;;;;10.40;43.75;101781.94;4943717;28;128728;-70
2022/12/19 05:15:06;;;;;;;;;;;;;;;10.46;43.27;101795.31;4956730;28;126795;-67
2022/12/19 05:17:32;;;;;;;;;;;;;;;10.52;43.76;101790.84;4958306;28;118092;-66
2022/12/19 05:19:58;;;;;;;;;;;;;;;10.55;43.87;101776.91;4945677;28;127223;-70
2022/12/19 05:22:27;;;;;;;;;;;;;;;10.57;43.52;101772.94;4972879;28;128661;-66
2022/12/19 05:24:53;;;;;;;;;;;;;;;10.60;43.55;101778.91;4940510;28;129977;-66
2022/12/19 05:27:19;;;;;;;;;;;;;;;10.62;43.92;101771.41;4954132;28;123960;-66
2022/12/19 05:29:45;;;;;;;;;;;;;;;10.64;43.79;101775.50;4958753;28;128204;-70
2022/12/19 05:32:11;;;;;;;;;;;;;;;10.67;43.53;101772.31;4959993;27;121678;-67
2022/12/19 05:34:37;;;;;;;;;;;;;;;10.66;43.68;101754.50;4965688;28;127123;-70
2022/12/19 05:37:03;;;;;;;;;;;;;;;10.69;43.40;101770.22;4955657;28;121464;-66
2022/12/19 05:39:29;;;;;;;;;;;;;;;10.69;43.69;101769.38;4961923;28;128096;-70
2022/12/19 05:41:55;;;;;;;;;;;;;;;10.69;43.37;101767.53;4944794;28;99940;-70
2022/12/19 05:44:21;;;;;;;;;;;;;;;10.70;43.52;101763.75;4954064;28;126610;-66
2022/12/19 05:46:47;;;;;;;;;;;;;;;10.70;43.52;101777.25;4946577;28;122553;-70
2022/12/19 05:49:16;;;;;;;;;;;;;;;10.70;43.94;101762.94;4972351;28;98604;-66
2022/12/19 05:51:42;;;;;;;;;;;;;;;10.70;43.49;101776.44;4937231;28;128051;-69
2022/12/19 05:54:08;;;;;;;;;;;;;;;10.70;43.84;101766.47;4940702;28;118799;-70
2022/12/19 05:56:33;;;;;;;;;;;;;;;10.71;43.79;101769.97;4956857;28;121745;-70
2022/12/19 05:58:59;;;;;;;;;;;;;;;10.69;43.91;101770.22;4942925;28;128496;-69
2022/12/19 06:01:26;;;;;;;;;;;;;;;10.69;43.60;101780.16;4940491;28;129324;-70
2022/12/19 06:03:52;;;;;;;;;;;;;;;10.68;43.94;101787.44;4956834;28;99130;-70
2022/12/19 06:06:20;;;;;;;;;;;;;;;10.68;43.48;101765.88;4965545;28;98219;-67
2022/12/19 06:08:46;;;;;;;;;;;;;;;10.68;43.83;101773.13;4936550;28;98558;-70
2022/12/19 06:11:12;;;;;;;;;;;;;;;10.68;43.87;101787.44;4930607;28;113933;-70
2022/12/19 06:13:38;;;;;;;;;;;;;;;10.68;43.61;101784.75;4955857;28;126133;-70
2022/12/19 06:16:12;;;;;;;;;;;;;;;10.66;43.83;101769.88;4951063;28;108885;-70
2022/12/19 06:18:38;;;;;;;;;;;;;;;10.65;43.64;101760.13;4955253;28;98859;-66
2022/12/19 06:21:05;;;;;;;;;;;;;;;10.64;43.67;101759.31;4946328;27;121675;-69
2022/12/19 06:23:32;;;;;;;;;;;;;;;10.63;43.74;101751.47;4921610;28;120600;-68
2022/12/19 06:25:59;;;;;;;;;;;;;;;10.61;43.38;101742.78;4962053;28;98500;-70
2022/12/19 06:28:25;;;;;;;;;;;;;;;10.59;43.50;101753.00;4961006;28;102254;-70
2022/12/19 06:30:51;;;;;;;;;;;;;;;10.59;43.91;101745.72;4953695;28;98662;-70
2022/12/19 06:33:17;;;;;;;;;;;;;;;10.57;43.57;101747.81;4956831;28;126753;-67
2022/12/19 06:35:43;;;;;;;;;;;;;;;10.57;43.74;101734.34;4934804;28;99615;-70
2022/12/19 06:38:09;;;;;;;;;;;;;;;10.56;43.81;101740.78;4937552;28;128038;-69
2022/12/19 06:43:28;;;;;;;;;;;;;;;10.53;43.64;101744.81;4959287;28;99571;-70
2022/12/19 06:45:55;;;;;;;;;;;;;;;10.54;43.27;101743.75;4949457;28;121806;-70
2022/12/19 06:48:21;;;;;;;;;;;;;;;10.53;43.72;101749.34;4942644;28;128491;-67
2022/12/19 06:50:47;;;;;;;;;;;;;;;10.52;43.30;101751.22;4954580;28;128697;-70
2022/12/19 06:53:13;;;;;;;;;;;;;;;10.52;44.00;101747.72;4971499;28;125602;-70
2022/12/19 06:55:39;;;;;;;;;;;;;;;10.51;43.21;101752.28;4957420;28;114540;-66
2022/12/19 06:58:05;;;;;;;;;;;;;;;10.51;43.65;101751.47;4972647;27;126119;-70
2022/12/19 07:00:35;;;;;;;;;;;;;;;10.51;43.90;101756.88;4938998;28;127456;-70
2022/12/19 07:03:01;;;;;;;;;;;;;;;10.51;43.81;101759.56;4974408;28;124198;-70
2022/12/19 07:05:28;;;;;;;;;;;;;;;10.51;43.49;101760.38;4942026;28;101162;-66
2022/12/19 07:07:54;;;;;;;;;;;;;;;10.51;43.63;101770.34;4958890;28;98522;-66
2022/12/19 07:10:20;;;;;;;;;;;;;;;10.50;43.84;101774.91;4933353;28;127996;-69
2022/12/19 07:12:46;;;;;;;;;;;;;;;10.49;43.70;101765.19;4938781;28;127222;-66
2022/12/19 07:15:12;;;;;;;;;;;;;;;10.50;43.39;101761.44;4969337;28;121862;-70
2022/12/19 07:17:38;;;;;;;;;;;;;;;10.50;43.19;101760.63;4953052;28;121111;-70
2022/12/19 07:20:04;;;;;;;;;;;;;;;10.50;43.37;101758.75;4953237;28;128005;-66
2022/12/19 07:22:31;;;;;;;;;;;;;;;10.50;43.84;101766.03;4936636;28;123706;-70
2022/12/19 07:24:57;;;;;;;;;;;;;;;10.50;43.26;101753.34;4954699;28;100930;-68
2022/12/19 07:27:23;;;;;;;;;;;;;;;10.50;43.87;101749.84;4958021;28;107252;-67
2022/12/19 07:29:49;;;;;;;;;;;;;;;10.51;43.47;101733.41;4951385;28;122506;-70
2022/12/19 07:32:15;;;;;;;;;;;;;;;10.52;43.59;101726.16;4937222;28;99803;-67
2022/12/19 07:34:41;;;;;;;;;;;;;;;10.53;43.79;101742.09;4940589;28;124874;-70
2022/12/19 07:37:07;;;;;;;;;;;;;;;10.53;43.37;101734.03;4941978;28;128785;-66
2022/12/19 07:39:33;;;;;;;;;;;;;;;10.54;43.71;101732.13;4954600;28;99721;-66
2022/12/19 07:41:59;;;;;;;;;;;;;;;10.55;43.47;101734.59;4953803;28;127608;-66
2022/12/19 07:44:25;;;;;;;;;;;;;;;10.56;43.62;101746.19;4953177;28;123045;-67
2022/12/19 07:46:51;;;;;;;;;;;;;;;10.56;43.70;101746.19;4970487;28;128184;-66
2022/12/19 07:49:16;;;;;;;;;;;;;;;10.56;43.65;101741.59;4953875;28;99225;-67
2022/12/19 07:51:42;;;;;;;;;;;;;;;10.57;43.37;101747.81;4937951;28;127373;-69
2022/12/19 07:54:08;;;;;;;;;;;;;;;10.60;43.75;101751.94;4954937;28;123411;-66
2022/12/19 07:56:34;;;;;;;;;;;;;;;10.62;43.59;101737.16;4957466;28;127298;-66
2022/12/19 07:59:00;;;;;;;;;;;;;;;10.65;43.35;101734.00;4959400;28;128366;-66
2022/12/19 08:01:26;;;;;;;;;;;;;;;10.67;43.55;101728.34;4956442;28;126948;-69
2022/12/19 08:03:55;;;;;;;;;;;;;;;10.70;43.32;101726.00;4942337;28;122097;-69
2022/12/19 08:06:22;;;;;;;;;;;;;;;10.74;43.03;101729.88;4916221;28;127682;-70
2022/12/19 08:08:48;;;;;;;;;;;;;;;10.79;43.10;101738.06;4938728;28;98182;-70
2022/12/19 08:11:16;;;;;;;;;;;;;;;10.84;43.26;101731.94;4957506;28;99659;-66
2022/12/19 08:13:42;;;;;;;;;;;;;;;10.89;43.42;101728.56;4942374;28;97812;-66
2022/12/19 08:16:08;;;;;;;;;;;;;;;10.94;43.21;101734.06;4954817;28;99839;-67
2022/12/19 08:18:34;;;;;;;;;;;;;;;11.00;43.43;101727.69;4962139;28;100326;-66
2022/12/19 08:21:00;;;;;;;;;;;;;;;11.04;43.30;101726.13;4921293;28;121254;-66
2022/12/19 08:23:26;;;;;;;;;;;;;;;11.08;43.19;101727.28;4939174;28;123110;-70
2022/12/19 08:26:02;;;;;;;;;;;;;;;11.11;43.19;101717.91;4943209;28;128739;-70
2022/12/19 08:28:29;;;;;;;;;;;;;;;11.15;43.26;101727.97;4954759;28;98431;-66
2022/12/19 08:30:55;;;;;;;;;;;;;;;11.22;43.11;101725.16;4936206;28;99589;-66
2022/12/19 08:33:21;;;;;;;;;;;;;;;11.28;43.26;101737.69;4956295;27;116807;-70
2022/12/19 08:35:47;;;;;;;;;;;;;;;11.33;43.14;101729.69;4940122;28;98428;-70
2022/12/19 08:38:13;;;;;;;;;;;;;;;11.37;42.95;101738.94;4955272;28;128895;-67
2022/12/19 08:40:38;;;;;;;;;;;;;;;11.41;43.15;101737.38;4954638;28;127915;-69
2022/12/19 08:43:04;;;;;;;;;;;;;;;11.44;43.09;101736.91;4942617;28;122098;-70
2022/12/19 08:45:30;;;;;;;;;;;;;;;11.48;43.07;101731.84;4937916;28;128679;-67
2022/12/19 08:47:56;;;;;;;;;;;;;;;11.53;43.11;101729.22;4936669;28;128409;-70
2022/12/19 08:50:22;;;;;;;;;;;;;;;11.59;43.08;101727.44;4920532;28;129452;-70
2022/12/19 08:52:48;;;;;;;;;;;;;;;11.64;43.04;101719.44;4942632;28;98056;-67
2022/12/19 08:55:14;;;;;;;;;;;;;;;11.72;43.01;101708.22;4953313;28;127823;-69
2022/12/19 08:57:40;;;;;;;;;;;;;;;11.80;43.04;101711.34;4950613;28;127526;-70
2022/12/19 09:00:07;;;;;;;;;;;;;;;11.88;42.74;101703.91;4953287;28;127670;-66
2022/12/19 09:02:33;;;;;;;;;;;;;;;11.99;42.77;101700.31;4957250;28;99195;-70
2022/12/19 09:04:59;;;;;;;;;;;;;;;12.09;42.57;101703.16;4939875;27;121317;-67
2022/12/19 09:07:25;;;;;;;;;;;;;;;12.21;42.52;101697.66;4936693;28;129683;-67
2022/12/19 09:09:50;;;;;;;;;;;;;;;12.29;42.24;101689.13;4970130;28;99754;-67
2022/12/19 09:12:16;;;;;;;;;;;;;;;12.37;42.65;101691.38;4936801;28;122025;-69
2022/12/19 09:14:45;;;;;;;;;;;;;;;12.42;42.71;101685.25;4954901;28;116484;-67
2022/12/19 09:17:11;;;;;;;;;;;;;;;12.45;42.63;101684.72;4941463;28;98555;-67
2022/12/19 09:19:37;;;;;;;;;;;;;;;12.51;42.71;101686.44;4940638;28;98088;-67
2022/12/19 09:22:03;;;;;;;;;;;;;;;12.54;42.77;101683.25;4938259;28;122513;-67
2022/12/19 09:24:29;;;;;;;;;;;;;;;12.56;42.70;101669.47;4938562;28;98367;-67
2022/12/19 09:26:55;;;;;;;;;;;;;;;12.58;42.84;101656.53;4969686;28;127914;-67
2022/12/19 09:29:21;;;;;;;;;;;;;;;12.59;42.65;101658.16;4953553;28;127027;-70
2022/12/19 09:31:47;;;;;;;;;;;;;;;12.61;42.58;101650.59;4919097;28;98355;-67
2022/12/19 09:34:13;;;;;;;;;;;;;;;12.63;42.75;101659.28;4935009;28;126383;-67
2022/12/19 09:36:39;;;;;;;;;;;;;;;12.64;42.71;101648.19;4952910;28;127175;-70
2022/12/19 09:39:05;;;;;;;;;;;;;;;12.65;42.79;101639.00;4936135;28;127146;-67
2022/12/19 09:42:01;;;;;;;;;;;;;;;12.67;42.64;101642.28;4938930;28;121726;-70
2022/12/19 09:44:40;;;;;;;;;;;;;;;12.67;42.76;101644.19;4966322;28;99606;-67
2022/12/19 09:47:17;;;;;;;;;;;;;;;12.66;42.68;101637.13;4952334;28;98446;-70
2022/12/19 09:49:44;;;;;;;;;;;;;;;12.62;43.08;101636.81;4955948;28;128726;-67
2022/12/19 09:52:21;;;;;;;;;;;;;;;12.61;43.10;101637.06;4952167;28;117419;-71
2022/12/19 09:54:52;;;;;;;;;;;;;;;12.60;43.13;101628.13;4950591;28;99774;-67
2022/12/19 09:57:43;;;;;;;;;;;;;;;12.61;43.40;101637.88;4955006;28;99410;-66
2022/12/19 10:00:13;;;;;;;;;;;;;;;12.65;42.86;101635.47;4935851;28;99545;-67
2022/12/19 10:02:56;;;;;;;;;;;;;;;12.72;42.96;101634.22;4954495;28;121874;-70
2022/12/19 10:05:47;;;;;;;;;;;;;;;12.82;42.90;101619.19;4933288;28;130323;-67
2022/12/19 10:08:19;;;;;;;;;;;;;;;12.87;42.65;101625.47;4934453;28;126563;-70
2022/12/19 10:11:00;;;;;;;;;;;;;;;12.93;42.86;101610.09;4964880;28;125259;-70
2022/12/19 10:13:35;;;;;;;;;;;;;;;13.03;42.74;101621.84;4953768;28;98192;-70
2022/12/19 10:16:05;;;;;;;;;;;;;;;13.11;42.80;101623.25;4955675;28;98742;-66
2022/12/19 10:18:43;;;;;;;;;;;;;;;13.17;42.48;101616.84;4955923;28;98153;-70
2022/12/19 10:21:34;;;;;;;;;;;;;;;13.24;42.65;101608.50;4970530;28;98434;-70
2022/12/19 10:24:14;;;;;;;;;;;;;;;13.33;42.74;101608.88;4942708;28;98505;-67
2022/12/19 10:26:52;;;;;;;;;;;;;;;13.39;42.74;101605.94;4965919;27;99529;-67
2022/12/19 10:29:38;;;;;;;;;;;;;;;13.45;42.41;101591.38;4938749;28;98884;-70
2022/12/19 10:32:13;;;;;;;;;;;;;;;13.51;42.55;101584.91;4956544;28;98534;-67
2022/12/19 10:34:43;;;;;;;;;;;;;;;13.57;42.76;101590.38;4957076;28;97949;-70
2022/12/19 10:37:28;;;;;;;;;;;;;;;13.60;42.47;101596.09;4936254;28;127628;-70
2022/12/19 10:40:22;;;;;;;;;;;;;;;13.64;42.78;101591.78;4970608;27;98831;-67
2022/12/19 10:43:10;;;;;;;;;;;;;;;13.68;42.52;101589.38;4973436;28;100188;-66
2022/12/19 10:45:39;;;;;;;;;;;;;;;13.72;42.62;101585.88;4956476;28;98675;-66
2022/12/19 10:48:07;;;;;;;;;;;;;;;13.78;42.36;101585.91;4931321;28;99948;-70
2022/12/19 10:50:33;;;;;;;;;;;;;;;13.81;42.44;101583.50;4934998;28;114650;-70
2022/12/19 10:53:12;;;;;;;;;;;;;;;13.84;42.56;101580.25;4953354;28;127162;-70
2022/12/19 10:55:44;;;;;;;;;;;;;;;13.86;42.76;101580.81;4949693;28;98333;-70
2022/12/19 10:58:19;;;;;;;;;;;;;;;13.89;42.45;101580.28;4970982;28;98323;-70
2022/12/19 11:01:12;;;;;;;;;;;;;;;13.89;42.52;101572.16;4936014;28;100214;-69
2022/12/19 11:03:40;;;;;;;;;;;;;;;13.86;42.81;101567.25;4956145;28;97982;-69
2022/12/19 11:06:26;;;;;;;;;;;;;;;13.86;43.04;101563.72;4939316;28;98155;-70
2022/12/19 11:08:52;;;;;;;;;;;;;;;13.89;42.88;101566.72;4958390;28;98876;-69
2022/12/19 11:11:18;;;;;;;;;;;;;;;13.94;42.55;101557.81;4949096;28;119140;-66
2022/12/19 11:13:47;;;;;;;;;;;;;;;13.99;42.52;101558.66;4936868;28;98874;-66
2022/12/19 11:16:19;;;;;;;;;;;;;;;14.03;42.71;101553.53;4950610;28;123483;-70
2022/12/19 11:18:46;;;;;;;;;;;;;;;14.08;42.55;101553.56;4951323;28;115239;-70
2022/12/19 11:21:18;;;;;;;;;;;;;;;14.10;42.91;101554.09;4937524;28;126579;-70
2022/12/19 11:23:55;;;;;;;;;;;;;;;14.12;42.34;101543.00;4953073;28;98167;-69
2022/12/19 11:26:41;;;;;;;;;;;;;;;14.15;42.53;101545.19;4949996;28;103042;-66
2022/12/19 11:29:39;;;;;;;;;;;;;;;14.16;42.55;101544.91;4974487;27;98445;-66
2022/12/19 11:32:19;;;;;;;;;;;;;;;14.17;42.81;101538.41;4975890;28;99446;-66
2022/12/19 11:34:47;;;;;;;;;;;;;;;14.18;42.64;101533.78;4942831;28;125456;-66
2022/12/19 11:37:18;;;;;;;;;;;;;;;14.16;42.60;101535.97;4940489;28;115465;-66
2022/12/19 11:40:02;;;;;;;;;;;;;;;14.15;42.75;101532.44;4954003;28;99484;-69
2022/12/19 11:42:31;;;;;;;;;;;;;;;14.12;42.79;101532.16;4955843;28;122835;-70
2022/12/19 11:45:10;;;;;;;;;;;;;;;14.10;42.69;101518.03;4955008;28;122956;-69
2022/12/19 11:47:42;;;;;;;;;;;;;;;14.09;42.62;101521.81;4953998;28;117689;-66
2022/12/19 11:50:23;;;;;;;;;;;;;;;14.06;42.86;101515.03;4960231;28;98601;-69
2022/12/19 11:53:11;;;;;;;;;;;;;;;13.99;42.90;101509.88;4937786;28;99896;-69
2022/12/19 11:55:41;;;;;;;;;;;;;;;13.87;43.12;101509.28;4955969;28;98662;-69
2022/12/19 11:58:11;;;;;;;;;;;;;;;13.81;42.73;101507.63;4960669;28;97971;-66
2022/12/19 12:00:43;;;;;;;;;;;;;;;13.78;42.94;101502.72;4957004;28;98460;-70
2022/12/19 12:03:31;;;;;;;;;;;;;;;13.75;43.25;101490.53;4939233;28;124698;-70
2022/12/19 12:05:57;;;;;;;;;;;;;;;13.73;43.07;101484.53;4935995;28;121832;-70
2022/12/19 12:08:37;;;;;;;;;;;;;;;13.70;42.89;101482.34;4936878;28;99766;-66
2022/12/19 12:11:14;;;;;;;;;;;;;;;13.65;43.03;101481.53;4956863;28;98642;-66
2022/12/19 12:13:43;;;;;;;;;;;;;;;13.62;42.90;101482.84;4954052;28;98485;-66
2022/12/19 12:16:15;;;;;;;;;;;;;;;13.55;43.26;101471.44;4956301;28;98265;-66
2022/12/19 12:18:55;;;;;;;;;;;;;;;13.53;43.03;101480.91;4958435;28;111884;-66
2022/12/19 12:21:32;;;;;;;;;;;;;;;13.49;43.00;101467.09;4972822;28;98414;-66
2022/12/19 12:24:04;;;;;;;;;;;;;;;13.46;43.09;101468.41;4921818;28;98062;-69
2022/12/19 12:26:43;;;;;;;;;;;;;;;13.44;43.32;101469.75;4954694;28;98032;-66
2022/12/19 12:29:35;;;;;;;;;;;;;;;13.40;43.00;101474.91;4955187;28;120792;-66
2022/12/19 12:32:10;;;;;;;;;;;;;;;13.33;43.31;101479.72;4946438;28;98437;-69
2022/12/19 12:34:35;;;;;;;;;;;;;;;13.29;43.19;101469.69;4971126;28;98518;-69
2022/12/19 12:37:08;;;;;;;;;;;;;;;13.22;43.32;101465.25;4955853;28;98073;-69
2022/12/19 12:39:54;;;;;;;;;;;;;;;13.16;43.47;101455.47;4956410;28;115375;-66
2022/12/19 12:42:26;;;;;;;;;;;;;;;13.09;43.56;101460.31;4934500;28;98354;-69
2022/12/19 12:44:53;;;;;;;;;;;;;;;13.03;43.38;101459.44;4971462;28;99053;-65
2022/12/19 12:47:24;;;;;;;;;;;;;;;12.98;43.36;101451.28;4939599;28;121044;-69
2022/12/19 12:49:58;;;;;;;;;;;;;;;12.93;43.46;101445.84;4952155;28;98477;-66